createdAt,value
2018-07-31T00:00:15.360Z,98625.00
2018-07-31T00:02:45.681Z,98624.00
2018-07-31T00:05:15.561Z,98624.00
2018-07-31T00:07:45.162Z,98621.00
2018-07-31T00:10:15.121Z,98619.00
2018-07-31T00:12:44.880Z,98622.00
2018-07-31T00:15:14.981Z,98632.00
2018-07-31T00:17:45.482Z,98631.00
2018-07-31T00:20:15.662Z,98635.00
2018-07-31T00:22:45.602Z,98632.00
2018-07-31T00:25:15.463Z,98632.00
2018-07-31T00:27:45.142Z,98624.00
2018-07-31T00:30:14.723Z,98626.00
2018-07-31T00:32:44.584Z,98622.00
2018-07-31T00:35:14.202Z,98622.00
2018-07-31T00:37:44.482Z,98622.00
2018-07-31T00:40:14.022Z,98620.00
2018-07-31T00:42:43.862Z,98613.00
2018-07-31T00:45:13.521Z,98614.00
2018-07-31T00:47:43.827Z,98617.00
2018-07-31T00:50:13.563Z,98617.00
2018-07-31T00:52:44.562Z,98614.00
2018-07-31T00:55:14.482Z,98613.00
2018-07-31T00:57:44.181Z,98619.00
2018-07-31T01:00:13.562Z,98615.00
2018-07-31T01:02:43.083Z,98616.00
2018-07-31T01:05:12.602Z,98610.00
2018-07-31T01:07:43.129Z,98613.00
2018-07-31T01:10:13.481Z,98615.00
2018-07-31T01:12:43.565Z,98615.00
2018-07-31T01:15:13.903Z,98600.00
2018-07-31T01:17:43.408Z,98608.00
2018-07-31T01:20:13.565Z,98612.00
2018-07-31T01:22:43.462Z,98606.00
2018-07-31T01:25:14.102Z,98608.00
2018-07-31T01:27:44.202Z,98606.00
2018-07-31T01:30:13.862Z,98602.00
2018-07-31T01:32:44.842Z,98605.00
2018-07-31T01:35:14.442Z,98604.00
2018-07-31T01:37:44.363Z,98611.00
2018-07-31T01:40:14.982Z,98598.00
2018-07-31T01:42:45.822Z,98610.00
2018-07-31T01:45:17.321Z,98612.00
2018-07-31T01:47:54.442Z,98621.00
2018-07-31T01:50:23.742Z,98610.00
2018-07-31T01:52:53.342Z,98606.00
2018-07-31T01:55:22.684Z,98609.00
2018-07-31T01:57:52.302Z,98598.00
2018-07-31T02:00:21.963Z,98600.00
2018-07-31T02:02:51.402Z,98599.00
2018-07-31T02:05:20.802Z,98592.00
2018-07-31T02:07:50.442Z,98593.00
2018-07-31T02:10:20.162Z,98590.00
2018-07-31T02:12:49.722Z,98593.00
2018-07-31T02:15:19.562Z,98605.00
2018-07-31T02:17:48.942Z,98597.00
2018-07-31T02:20:18.482Z,98598.00
2018-07-31T02:22:48.008Z,98600.00
2018-07-31T02:25:17.022Z,98600.00
2018-07-31T02:27:46.763Z,98596.00
2018-07-31T02:30:20.543Z,98600.00
2018-07-31T02:32:51.182Z,98598.00
2018-07-31T02:35:20.442Z,98595.00
2018-07-31T02:37:49.783Z,98601.00
2018-07-31T02:40:19.142Z,98601.00
2018-07-31T02:42:49.303Z,98596.00
2018-07-31T02:45:19.342Z,98593.00
2018-07-31T02:47:49.782Z,98588.00
2018-07-31T02:50:19.763Z,98588.00
2018-07-31T02:52:49.469Z,98600.00
2018-07-31T02:55:19.242Z,98602.00
2018-07-31T02:57:48.785Z,98610.00
2018-07-31T03:00:18.362Z,98608.00
2018-07-31T03:02:47.921Z,98597.00
2018-07-31T03:05:17.602Z,98595.00
2018-07-31T03:07:47.183Z,98601.00
2018-07-31T03:10:16.582Z,98599.00
2018-07-31T03:12:45.803Z,98603.00
2018-07-31T03:15:15.102Z,98606.00
2018-07-31T03:17:44.223Z,98603.00
2018-07-31T03:20:13.562Z,98600.00
2018-07-31T03:22:43.162Z,98597.00
2018-07-31T03:25:12.504Z,98598.00
2018-07-31T03:27:42.026Z,98604.00
2018-07-31T03:30:11.362Z,98601.00
2018-07-31T03:32:40.742Z,98600.00
2018-07-31T03:35:10.202Z,98601.00
2018-07-31T03:37:39.482Z,98603.00
2018-07-31T03:40:08.870Z,98612.00
2018-07-31T03:42:38.182Z,98606.00
2018-07-31T03:45:07.661Z,98607.00
2018-07-31T03:47:36.981Z,98605.00
2018-07-31T03:50:06.331Z,98607.00
2018-07-31T03:52:35.688Z,98606.00
2018-07-31T03:55:05.082Z,98602.00
2018-07-31T03:57:34.401Z,98599.00
2018-07-31T04:00:04.629Z,98608.00
2018-07-31T04:02:33.881Z,98612.00
2018-07-31T04:05:03.162Z,98615.00
2018-07-31T04:07:32.501Z,98613.00
2018-07-31T04:10:02.081Z,98614.00
2018-07-31T04:12:31.702Z,98619.00
2018-07-31T04:15:02.006Z,98614.00
2018-07-31T04:17:31.982Z,98622.00
2018-07-31T04:20:02.202Z,98630.00
2018-07-31T04:22:33.042Z,98620.00
2018-07-31T04:25:03.362Z,98619.00
2018-07-31T04:27:33.722Z,98615.00
2018-07-31T04:30:05.329Z,98617.00
2018-07-31T04:32:34.842Z,98613.00
2018-07-31T04:35:06.362Z,98624.00
2018-07-31T04:37:36.502Z,98633.00
2018-07-31T04:40:06.084Z,98627.00
2018-07-31T04:42:36.102Z,98619.00
2018-07-31T04:45:09.149Z,98611.00
2018-07-31T04:47:39.621Z,98615.00
2018-07-31T04:50:10.321Z,98621.00
2018-07-31T04:52:40.042Z,98622.00
2018-07-31T04:55:10.561Z,98620.00
2018-07-31T04:57:40.203Z,98619.00
2018-07-31T05:00:10.282Z,98623.00
2018-07-31T05:02:39.761Z,98623.00
2018-07-31T05:05:09.166Z,98627.00
2018-07-31T05:07:39.601Z,98626.00
2018-07-31T05:10:12.841Z,98630.00
2018-07-31T05:12:43.301Z,98630.00
2018-07-31T05:15:12.868Z,98629.00
2018-07-31T05:17:42.261Z,98635.00
2018-07-31T05:20:11.784Z,98633.00
2018-07-31T05:22:41.581Z,98638.00
2018-07-31T05:25:11.066Z,98641.00
2018-07-31T05:27:40.822Z,98644.00
2018-07-31T05:30:10.744Z,98647.00
2018-07-31T05:32:40.406Z,98645.00
2018-07-31T05:35:10.305Z,98644.00
2018-07-31T05:37:39.585Z,98655.00
2018-07-31T05:40:09.827Z,98660.00
2018-07-31T05:42:39.226Z,98660.00
2018-07-31T05:45:08.687Z,98661.00
2018-07-31T05:47:38.507Z,98659.00
2018-07-31T05:50:08.730Z,98658.00
2018-07-31T05:52:38.750Z,98662.00
2018-07-31T05:55:08.517Z,98667.00
2018-07-31T05:57:37.970Z,98667.00
2018-07-31T06:00:09.270Z,98656.00
2018-07-31T06:02:38.690Z,98663.00
2018-07-31T06:05:08.223Z,98668.00
2018-07-31T06:07:37.543Z,98676.00
2018-07-31T06:10:08.444Z,98668.00
2018-07-31T06:12:37.747Z,98662.00
2018-07-31T06:15:08.249Z,98664.00
2018-07-31T06:17:37.688Z,98669.00
2018-07-31T06:20:15.648Z,98671.00
2018-07-31T06:22:46.788Z,98664.00
2018-07-31T06:25:16.128Z,98665.00
2018-07-31T06:27:45.704Z,98674.00
2018-07-31T06:30:15.464Z,98661.00
2018-07-31T06:32:45.485Z,98659.00
2018-07-31T06:35:14.911Z,98663.00
2018-07-31T06:37:44.464Z,98662.00
2018-07-31T06:40:13.964Z,98669.00
2018-07-31T06:42:43.364Z,98659.00
2018-07-31T06:45:12.704Z,98662.00
2018-07-31T06:47:41.864Z,98661.00
2018-07-31T06:50:11.744Z,98659.00
2018-07-31T06:52:41.584Z,98662.00
2018-07-31T06:55:10.924Z,98661.00
2018-07-31T06:57:40.344Z,98666.00
2018-07-31T07:00:10.045Z,98665.00
2018-07-31T07:02:40.184Z,98666.00
2018-07-31T07:05:09.624Z,98663.00
2018-07-31T07:07:39.004Z,98664.00
2018-07-31T07:10:08.425Z,98668.00
2018-07-31T07:12:37.944Z,98656.00
2018-07-31T07:15:07.424Z,98655.00
2018-07-31T07:17:36.784Z,98652.00
2018-07-31T07:20:06.324Z,98659.00
2018-07-31T07:22:35.693Z,98656.00
2018-07-31T07:25:05.649Z,98659.00
2018-07-31T07:27:35.171Z,98658.00
2018-07-31T07:30:05.566Z,98661.00
2018-07-31T07:32:34.905Z,98658.00
2018-07-31T07:35:04.684Z,98656.00
2018-07-31T07:37:34.286Z,98654.00
2018-07-31T07:40:03.916Z,98657.00
2018-07-31T07:42:33.484Z,98651.00
2018-07-31T07:45:02.827Z,98652.00
2018-07-31T07:47:32.144Z,98643.00
2018-07-31T07:50:01.444Z,98650.00
2018-07-31T07:52:30.766Z,98649.00
2018-07-31T07:55:06.704Z,98648.00
2018-07-31T07:57:36.024Z,98654.00
2018-07-31T08:00:09.046Z,98651.00
2018-07-31T08:02:38.505Z,98646.00
2018-07-31T08:05:08.594Z,98653.00
2018-07-31T08:07:38.141Z,98651.00
2018-07-31T08:10:07.787Z,98660.00
2018-07-31T08:12:37.355Z,98663.00
2018-07-31T08:15:06.938Z,98656.00
2018-07-31T08:17:36.406Z,98660.00
2018-07-31T08:20:07.122Z,98663.00
2018-07-31T08:22:36.664Z,98659.00
2018-07-31T08:25:06.123Z,98660.00
2018-07-31T08:27:35.506Z,98663.00
2018-07-31T08:30:05.643Z,98667.00
2018-07-31T08:32:34.985Z,98664.00
2018-07-31T08:35:04.483Z,98662.00
2018-07-31T08:37:33.926Z,98670.00
2018-07-31T08:40:03.625Z,98663.00
2018-07-31T08:42:33.005Z,98673.00
2018-07-31T08:45:02.346Z,98672.00
2018-07-31T08:47:31.645Z,98669.00
2018-07-31T08:50:01.025Z,98667.00
2018-07-31T08:52:30.445Z,98664.00
2018-07-31T08:54:59.845Z,98669.00
2018-07-31T08:57:29.325Z,98665.00
2018-07-31T08:59:58.705Z,98660.00
2018-07-31T09:02:28.171Z,98666.00
2018-07-31T09:04:57.451Z,98664.00
2018-07-31T09:07:26.788Z,98658.00
2018-07-31T09:09:56.316Z,98653.00
2018-07-31T09:12:25.778Z,98651.00
2018-07-31T09:14:55.050Z,98651.00
2018-07-31T09:17:24.468Z,98653.00
2018-07-31T09:19:53.811Z,98654.00
2018-07-31T09:22:29.991Z,98658.00
2018-07-31T09:24:59.591Z,98650.00
2018-07-31T09:27:28.910Z,98651.00
2018-07-31T09:29:58.211Z,98647.00
2018-07-31T09:33:35.551Z,98644.00
2018-07-31T09:36:04.790Z,98648.00
2018-07-31T09:38:34.158Z,98639.00
2018-07-31T09:41:03.770Z,98636.00
2018-07-31T09:43:33.170Z,98636.00
2018-07-31T09:46:02.654Z,98631.00
2018-07-31T09:48:32.657Z,98634.00
2018-07-31T09:51:01.994Z,98634.00
2018-07-31T09:53:31.030Z,98630.00
2018-07-31T09:56:00.418Z,98631.00
2018-07-31T09:58:30.471Z,98624.00
2018-07-31T10:01:05.111Z,98621.00
2018-07-31T10:03:34.410Z,98623.00
2018-07-31T10:06:03.731Z,98626.00
2018-07-31T10:08:33.074Z,98614.00
2018-07-31T10:11:02.611Z,98615.00
2018-07-31T10:13:32.171Z,98611.00
2018-07-31T10:16:01.611Z,98613.00
2018-07-31T10:18:30.871Z,98616.00
2018-07-31T10:21:00.245Z,98608.00
2018-07-31T10:23:29.611Z,98608.00
2018-07-31T10:25:58.854Z,98603.00
2018-07-31T10:28:28.171Z,98602.00
2018-07-31T10:30:57.936Z,98597.00
2018-07-31T10:33:27.191Z,98595.00
2018-07-31T10:35:56.531Z,98587.00
2018-07-31T10:38:40.451Z,98595.00
2018-07-31T10:41:09.971Z,98585.00
2018-07-31T10:43:39.406Z,98581.00
2018-07-31T10:46:08.748Z,98583.00
2018-07-31T10:48:38.088Z,98580.00
2018-07-31T10:51:07.594Z,98575.00
2018-07-31T10:53:36.980Z,98581.00
2018-07-31T10:56:06.820Z,98584.00
2018-07-31T10:58:36.040Z,98583.00
2018-07-31T11:01:05.480Z,98577.00
2018-07-31T11:03:34.861Z,98570.00
2018-07-31T11:06:04.160Z,98568.00
2018-07-31T11:08:33.560Z,98581.00
2018-07-31T11:11:03.041Z,98567.00
2018-07-31T11:13:32.601Z,98575.00
2018-07-31T11:16:02.153Z,98573.00
2018-07-31T11:18:31.091Z,98570.00
2018-07-31T11:21:00.408Z,98566.00
2018-07-31T11:24:32.879Z,98563.00
2018-07-31T11:27:02.179Z,98562.00
2018-07-31T11:29:31.720Z,98553.00
2018-07-31T11:32:01.239Z,98557.00
2018-07-31T11:34:30.699Z,98547.00
2018-07-31T11:37:00.300Z,98544.00
2018-07-31T11:39:29.659Z,98545.00
2018-07-31T11:41:59.179Z,98552.00
2018-07-31T11:44:28.700Z,98550.00
2018-07-31T11:46:58.539Z,98545.00
2018-07-31T11:49:27.792Z,98546.00
2018-07-31T11:51:57.111Z,98537.00
2018-07-31T11:54:26.930Z,98539.00
2018-07-31T11:56:56.290Z,98539.00
2018-07-31T11:59:25.572Z,98539.00
2018-07-31T12:01:55.270Z,98531.00
2018-07-31T12:04:24.676Z,98539.00
2018-07-31T12:06:54.212Z,98534.00
2018-07-31T12:09:23.555Z,98525.00
2018-07-31T12:11:52.892Z,98526.00
2018-07-31T12:14:22.212Z,98530.00
2018-07-31T12:16:51.798Z,98528.00
2018-07-31T12:19:21.127Z,98527.00
2018-07-31T12:21:50.512Z,98528.00
2018-07-31T12:24:19.916Z,98525.00
2018-07-31T12:26:49.205Z,98531.00
2018-07-31T12:29:18.512Z,98530.00
2018-07-31T12:31:47.632Z,98523.00
2018-07-31T12:34:16.940Z,98520.00
2018-07-31T12:36:46.318Z,98525.00
2018-07-31T12:39:15.572Z,98527.00
2018-07-31T12:41:44.892Z,98519.00
2018-07-31T12:44:14.592Z,98514.00
2018-07-31T12:46:43.933Z,98520.00
2018-07-31T12:49:13.832Z,98515.00
2018-07-31T12:51:42.932Z,98516.00
2018-07-31T12:54:12.492Z,98519.00
2018-07-31T12:56:41.792Z,98517.00
2018-07-31T12:59:11.232Z,98512.00
2018-07-31T13:01:40.592Z,98518.00
2018-07-31T13:04:10.012Z,98512.00
2018-07-31T13:06:39.415Z,98517.00
2018-07-31T13:09:09.251Z,98508.00
2018-07-31T13:11:38.772Z,98503.00
2018-07-31T13:14:08.392Z,98503.00
2018-07-31T13:16:37.972Z,98504.00
2018-07-31T13:19:07.012Z,98507.00
2018-07-31T13:21:36.392Z,98502.00
2018-07-31T13:24:05.951Z,98503.00
2018-07-31T13:26:35.312Z,98502.00
2018-07-31T13:29:05.231Z,98500.00
2018-07-31T13:31:34.612Z,98498.00
2018-07-31T13:34:04.052Z,98500.00
2018-07-31T13:36:33.412Z,98499.00
2018-07-31T13:39:03.012Z,98493.00
2018-07-31T13:41:32.592Z,98486.00
2018-07-31T13:44:02.671Z,98489.00
2018-07-31T13:46:32.132Z,98486.00
2018-07-31T13:49:01.520Z,98488.00
2018-07-31T13:51:31.272Z,98490.00
2018-07-31T13:54:00.533Z,98484.00
2018-07-31T13:56:29.932Z,98489.00
2018-07-31T13:58:59.229Z,98494.00
2018-07-31T14:01:29.169Z,98496.00
2018-07-31T14:03:58.455Z,98489.00
2018-07-31T14:06:27.812Z,98495.00
2018-07-31T14:08:57.172Z,98488.00
2018-07-31T14:11:26.736Z,98490.00
2018-07-31T14:13:56.839Z,98487.00
2018-07-31T14:16:26.252Z,98480.00
2018-07-31T14:18:55.973Z,98486.00
2018-07-31T14:21:25.224Z,98492.00
2018-07-31T14:23:54.584Z,98487.00
2018-07-31T14:26:23.925Z,98483.00
2018-07-31T14:28:53.765Z,98474.00
2018-07-31T14:31:23.725Z,98475.00
2018-07-31T14:33:53.264Z,98472.00
2018-07-31T14:36:22.845Z,98479.00
2018-07-31T14:38:52.203Z,98483.00
2018-07-31T14:41:21.525Z,98479.00
2018-07-31T14:43:50.864Z,98478.00
2018-07-31T14:46:20.584Z,98477.00
2018-07-31T14:48:50.124Z,98477.00
2018-07-31T14:51:19.725Z,98484.00
2018-07-31T14:53:49.404Z,98480.00
2018-07-31T14:56:18.925Z,98478.00
2018-07-31T14:58:48.245Z,98487.00
2018-07-31T15:01:17.646Z,98480.00
2018-07-31T15:03:47.071Z,98483.00
2018-07-31T15:06:16.791Z,98481.00
2018-07-31T15:08:46.112Z,98470.00
2018-07-31T15:11:15.479Z,98477.00
2018-07-31T15:13:44.811Z,98476.00
2018-07-31T15:16:14.512Z,98486.00
2018-07-31T15:18:44.029Z,98477.00
2018-07-31T15:21:13.475Z,98468.00
2018-07-31T15:23:43.307Z,98469.00
2018-07-31T15:26:13.148Z,98463.00
2018-07-31T15:28:42.907Z,98471.00
2018-07-31T15:31:12.267Z,98474.00
2018-07-31T15:33:41.927Z,98465.00
2018-07-31T15:36:11.633Z,98467.00
2018-07-31T15:38:41.011Z,98471.00
2018-07-31T15:41:10.531Z,98463.00
2018-07-31T15:43:39.831Z,98465.00
2018-07-31T15:46:09.352Z,98461.00
2018-07-31T15:48:38.839Z,98463.00
2018-07-31T15:51:08.359Z,98465.00
2018-07-31T15:53:37.759Z,98461.00
2018-07-31T15:56:07.359Z,98463.00
2018-07-31T15:58:36.999Z,98462.00
2018-07-31T16:01:06.359Z,98464.00
2018-07-31T16:03:35.696Z,98465.00
2018-07-31T16:06:05.431Z,98467.00
2018-07-31T16:08:36.439Z,98464.00
2018-07-31T16:11:05.830Z,98468.00
2018-07-31T16:13:35.202Z,98467.00
2018-07-31T16:16:04.699Z,98463.00
2018-07-31T16:18:34.301Z,98463.00
2018-07-31T16:21:04.740Z,98462.00
2018-07-31T16:23:34.047Z,98467.00
2018-07-31T16:26:03.476Z,98462.00
2018-07-31T16:28:32.845Z,98467.00
2018-07-31T16:31:02.472Z,98470.00
2018-07-31T16:33:32.209Z,98464.00
2018-07-31T16:36:01.650Z,98469.00
2018-07-31T16:38:31.000Z,98466.00
2018-07-31T16:41:00.606Z,98466.00
2018-07-31T16:43:30.089Z,98462.00
2018-07-31T16:45:59.445Z,98455.00
2018-07-31T16:48:28.966Z,98461.00
2018-07-31T16:50:58.473Z,98458.00
2018-07-31T16:53:27.925Z,98454.00
2018-07-31T16:55:57.378Z,98460.00
2018-07-31T16:58:26.708Z,98464.00
2018-07-31T17:00:55.962Z,98460.00
2018-07-31T17:03:25.192Z,98465.00
2018-07-31T17:05:54.521Z,98458.00
2018-07-31T17:08:23.896Z,98469.00
2018-07-31T17:10:53.293Z,98462.00
2018-07-31T17:13:23.023Z,98465.00
2018-07-31T17:15:52.334Z,98468.00
2018-07-31T17:18:21.812Z,98467.00
2018-07-31T17:20:51.124Z,98462.00
2018-07-31T17:23:20.420Z,98464.00
2018-07-31T17:25:49.673Z,98462.00
2018-07-31T17:28:19.105Z,98462.00
2018-07-31T17:30:48.922Z,98458.00
2018-07-31T17:33:18.221Z,98454.00
2018-07-31T17:35:47.642Z,98461.00
2018-07-31T17:38:17.561Z,98457.00
2018-07-31T17:40:46.889Z,98459.00
2018-07-31T17:43:16.427Z,98460.00
2018-07-31T17:45:45.826Z,98463.00
2018-07-31T17:48:15.088Z,98464.00
2018-07-31T17:50:44.970Z,98462.00
2018-07-31T17:53:14.226Z,98467.00
2018-07-31T17:55:43.667Z,98471.00
2018-07-31T17:58:13.978Z,98468.00
2018-07-31T18:00:43.581Z,98472.00
2018-07-31T18:03:13.385Z,98465.00
2018-07-31T18:05:42.984Z,98467.00
2018-07-31T18:08:12.681Z,98475.00
2018-07-31T18:10:42.113Z,98474.00
2018-07-31T18:13:11.526Z,98473.00
2018-07-31T18:15:41.086Z,98479.00
2018-07-31T18:18:10.487Z,98472.00
2018-07-31T18:20:40.128Z,98477.00
2018-07-31T18:23:09.807Z,98473.00
2018-07-31T18:25:39.187Z,98476.00
2018-07-31T18:28:08.465Z,98476.00
2018-07-31T18:30:37.791Z,98482.00
2018-07-31T18:33:07.089Z,98477.00
2018-07-31T18:35:36.508Z,98478.00
2018-07-31T18:38:06.207Z,98489.00
2018-07-31T18:40:36.006Z,98482.00
2018-07-31T18:43:05.566Z,98489.00
2018-07-31T18:45:35.407Z,98483.00
2018-07-31T18:48:05.075Z,98491.00
2018-07-31T18:50:34.937Z,98487.00
2018-07-31T18:53:04.247Z,98485.00
2018-07-31T18:55:33.875Z,98484.00
2018-07-31T18:58:03.569Z,98483.00
2018-07-31T19:00:32.866Z,98494.00
2018-07-31T19:03:02.723Z,98494.00
2018-07-31T19:05:32.304Z,98493.00
2018-07-31T19:08:01.819Z,98497.00
2018-07-31T19:10:31.975Z,98502.00
2018-07-31T19:13:01.849Z,98501.00
2018-07-31T19:15:32.516Z,98508.00
2018-07-31T19:18:01.954Z,98505.00
2018-07-31T19:20:32.114Z,98508.00
2018-07-31T19:23:01.722Z,98506.00
2018-07-31T19:25:31.534Z,98507.00
2018-07-31T19:28:01.517Z,98509.00
2018-07-31T19:30:31.895Z,98518.00
2018-07-31T19:33:01.598Z,98514.00
2018-07-31T19:35:31.634Z,98519.00
2018-07-31T19:38:01.974Z,98513.00
2018-07-31T19:40:32.084Z,98514.00
2018-07-31T19:43:02.615Z,98519.00
2018-07-31T19:45:32.494Z,98518.00
2018-07-31T19:48:02.816Z,98521.00
2018-07-31T19:50:32.494Z,98529.00
2018-07-31T19:53:02.514Z,98537.00
2018-07-31T19:55:33.575Z,98536.00
2018-07-31T19:58:03.015Z,98535.00
2018-07-31T20:00:32.354Z,98530.00
2018-07-31T20:03:01.674Z,98536.00
2018-07-31T20:05:31.474Z,98536.00
2018-07-31T20:08:00.814Z,98534.00
2018-07-31T20:10:30.197Z,98537.00
2018-07-31T20:12:59.614Z,98528.00
2018-07-31T20:15:29.060Z,98534.00
2018-07-31T20:17:58.434Z,98527.00
2018-07-31T20:20:27.815Z,98549.00
2018-07-31T20:22:57.174Z,98546.00
2018-07-31T20:25:26.954Z,98547.00
2018-07-31T20:27:56.491Z,98546.00
2018-07-31T20:30:25.871Z,98547.00
2018-07-31T20:32:55.291Z,98551.00
2018-07-31T20:35:24.770Z,98551.00
2018-07-31T20:37:54.210Z,98549.00
2018-07-31T20:40:23.642Z,98558.00
2018-07-31T20:42:53.513Z,98555.00
2018-07-31T20:45:23.150Z,98560.00
2018-07-31T20:47:52.590Z,98562.00
2018-07-31T20:50:22.005Z,98559.00
2018-07-31T20:52:51.970Z,98556.00
2018-07-31T20:55:21.340Z,98558.00
2018-07-31T20:57:51.251Z,98558.00
2018-07-31T21:00:20.628Z,98562.00
2018-07-31T21:02:50.250Z,98568.00
2018-07-31T21:05:19.650Z,98565.00
2018-07-31T21:07:49.371Z,98571.00
2018-07-31T21:10:18.957Z,98568.00
2018-07-31T21:12:48.350Z,98571.00
2018-07-31T21:15:18.111Z,98579.00
2018-07-31T21:17:47.523Z,98575.00
2018-07-31T21:20:16.950Z,98577.00
2018-07-31T21:22:46.349Z,98575.00
2018-07-31T21:25:16.109Z,98578.00
2018-07-31T21:27:45.470Z,98575.00
2018-07-31T21:30:14.810Z,98565.00
2018-07-31T21:32:44.270Z,98563.00
2018-07-31T21:35:13.329Z,98569.00
2018-07-31T21:37:42.890Z,98570.00
2018-07-31T21:40:12.569Z,98566.00
2018-07-31T21:42:41.930Z,98567.00
2018-07-31T21:45:12.050Z,98576.00
2018-07-31T21:47:41.791Z,98578.00
2018-07-31T21:50:11.249Z,98575.00
2018-07-31T21:52:40.694Z,98573.00
2018-07-31T21:55:10.211Z,98579.00
2018-07-31T21:57:39.569Z,98581.00
2018-07-31T22:00:10.952Z,98577.00
2018-07-31T22:02:40.218Z,98585.00
2018-07-31T22:05:09.610Z,98587.00
2018-07-31T22:07:39.090Z,98597.00
2018-07-31T22:10:08.590Z,98597.00
2018-07-31T22:12:38.252Z,98592.00
2018-07-31T22:15:07.751Z,98598.00
2018-07-31T22:17:37.070Z,98600.00
2018-07-31T22:20:06.413Z,98608.00
2018-07-31T22:22:35.610Z,98605.00
2018-07-31T22:25:05.264Z,98610.00
2018-07-31T22:27:34.630Z,98608.00
2018-07-31T22:30:04.843Z,98601.00
2018-07-31T22:32:34.509Z,98601.00
2018-07-31T22:35:04.610Z,98607.00
2018-07-31T22:37:35.369Z,98610.00
2018-07-31T22:40:05.410Z,98605.00
2018-07-31T22:42:35.189Z,98606.00
2018-07-31T22:45:04.629Z,98602.00
2018-07-31T22:47:34.633Z,98613.00
2018-07-31T22:50:04.449Z,98615.00
2018-07-31T22:52:33.849Z,98619.00
2018-07-31T22:55:03.349Z,98614.00
2018-07-31T22:57:33.081Z,98615.00
2018-07-31T23:00:02.622Z,98617.00
2018-07-31T23:02:32.022Z,98621.00
2018-07-31T23:05:01.321Z,98626.00
2018-07-31T23:07:30.902Z,98617.00
2018-07-31T23:10:03.585Z,98621.00
2018-07-31T23:12:33.841Z,98617.00
2018-07-31T23:15:03.741Z,98622.00
2018-07-31T23:17:33.081Z,98614.00
2018-07-31T23:20:03.561Z,98618.00
2018-07-31T23:22:47.401Z,98618.00
2018-07-31T23:25:16.841Z,98617.00
2018-07-31T23:27:46.681Z,98615.00
2018-07-31T23:30:16.382Z,98626.00
2018-07-31T23:32:45.661Z,98632.00
2018-07-31T23:35:15.004Z,98635.00
2018-07-31T23:37:44.274Z,98627.00
2018-07-31T23:40:13.683Z,98629.00
2018-07-31T23:42:42.722Z,98626.00
2018-07-31T23:45:13.062Z,98622.00
2018-07-31T23:47:42.986Z,98617.00
2018-07-31T23:50:14.702Z,98626.00
2018-07-31T23:55:29.782Z,98612.00
2018-07-31T23:57:59.662Z,98614.00
